Itape, Brazil
Current Conditions -  °F | °C
As of 5:00 AM on Friday 31 Oct 2014 (Local Time) from SBIL Reporting Station
Scattered Clouds Scattered Clouds  
Wind Chill: 77°   Ceiling: Unl
Heat Index: 78°   Visibility: 6mi
Dew Point: 72°   Wind: 2mph
Humidity: 83%   Direction: 70°ENE
Pressure: 29.97"   Gusts: NA
Location:  14.9°S, 39.42°W
Report Text: SBIL 310800Z 07002KT 9999 SCT020 FEW025TCU SCT070 25/22 Q1015
Loading
Personal Weather Stations






























Interactive Weather Map
Tropical Storm Tracking
New forecast layout! Learn more

10-Day Weather Forecast

Advertisements
Track Severe Weather on mobile